createdAt,value
2023-05-14T00:00:45.623Z,4.90
2023-05-14T00:01:45.604Z,4.80
2023-05-14T00:02:45.688Z,4.90
2023-05-14T00:03:45.690Z,6.20
2023-05-14T00:04:45.568Z,5.40
2023-05-14T00:05:45.550Z,4.60
2023-05-14T00:06:45.525Z,4.60
2023-05-14T00:07:45.537Z,4.60
2023-05-14T00:08:45.510Z,5.20
2023-05-14T00:09:45.497Z,4.40
2023-05-14T00:10:45.505Z,5.90
2023-05-14T00:11:45.480Z,5.20
2023-05-14T00:12:45.466Z,5.20
2023-05-14T00:13:45.474Z,5.20
2023-05-14T00:14:45.441Z,5.00
2023-05-14T00:15:45.509Z,5.20
2023-05-14T00:16:45.441Z,8.30
2023-05-14T00:17:45.462Z,7.50
2023-05-14T00:18:45.452Z,5.40
2023-05-14T00:19:45.417Z,9.10
2023-05-14T00:20:45.391Z,5.80
2023-05-14T00:21:45.387Z,5.20
2023-05-14T00:22:45.439Z,6.50
2023-05-14T00:23:45.409Z,6.20
2023-05-14T00:24:45.332Z,5.80
2023-05-14T00:25:45.364Z,5.70
2023-05-14T00:26:45.347Z,5.30
2023-05-14T00:27:45.351Z,5.70
2023-05-14T00:28:45.294Z,5.60
2023-05-14T00:29:45.296Z,6.00
2023-05-14T00:30:46.216Z,5.50
2023-05-14T00:31:45.352Z,5.00
2023-05-14T00:32:45.286Z,6.60
2023-05-14T00:33:45.242Z,6.30
2023-05-14T00:34:45.252Z,5.40
2023-05-14T00:35:45.251Z,5.50
2023-05-14T00:36:45.227Z,5.20
2023-05-14T00:37:45.204Z,5.70
2023-05-14T00:38:45.182Z,7.50
2023-05-14T00:39:45.176Z,5.80
2023-05-14T00:40:45.180Z,5.70
2023-05-14T00:41:45.158Z,5.50
2023-05-14T00:42:45.188Z,5.60
2023-05-14T00:43:45.142Z,6.10
2023-05-14T00:44:45.122Z,6.40
2023-05-14T00:45:45.129Z,6.10
2023-05-14T00:46:45.152Z,8.00
2023-05-14T00:47:45.113Z,6.40
2023-05-14T00:48:45.078Z,5.70
2023-05-14T00:49:45.069Z,6.40
2023-05-14T00:50:45.075Z,6.80
2023-05-14T00:51:45.058Z,5.50
2023-05-14T00:52:45.044Z,5.80
2023-05-14T00:53:45.025Z,6.80
2023-05-14T00:54:45.014Z,6.10
2023-05-14T00:55:45.021Z,5.80
2023-05-14T00:56:44.989Z,7.20
2023-05-14T00:57:45.025Z,5.60
2023-05-14T00:58:44.990Z,6.60
2023-05-14T00:59:44.977Z,6.60
2023-05-14T01:00:44.978Z,7.40
2023-05-14T01:01:44.941Z,6.50
2023-05-14T01:02:45.031Z,6.00
2023-05-14T01:03:45.023Z,6.60
2023-05-14T01:04:44.926Z,6.50
2023-05-14T01:05:44.910Z,6.30
2023-05-14T01:06:51.932Z,7.10
2023-05-14T01:07:44.900Z,6.00
2023-05-14T01:08:44.856Z,6.30
2023-05-14T01:09:44.857Z,6.70
2023-05-14T01:10:44.865Z,6.80
2023-05-14T01:11:44.824Z,6.80
2023-05-14T01:12:44.824Z,5.90
2023-05-14T01:13:44.807Z,7.80
2023-05-14T01:14:44.825Z,6.30
2023-05-14T01:15:44.790Z,7.30
2023-05-14T01:16:44.850Z,6.50
2023-05-14T01:17:44.817Z,6.40
2023-05-14T01:18:44.786Z,6.40
2023-05-14T01:19:44.809Z,6.00
2023-05-14T01:20:44.751Z,5.70
2023-05-14T01:21:44.722Z,6.20
2023-05-14T01:22:44.703Z,6.70
2023-05-14T01:23:44.710Z,7.00
2023-05-14T01:24:44.686Z,6.20
2023-05-14T01:25:44.691Z,6.70
2023-05-14T01:26:44.690Z,6.70
2023-05-14T01:27:44.656Z,6.20
2023-05-14T01:28:44.640Z,6.50
2023-05-14T01:29:44.653Z,8.10
2023-05-14T01:30:44.638Z,7.00
2023-05-14T01:31:44.676Z,6.50
2023-05-14T01:32:44.648Z,6.70
2023-05-14T01:33:44.629Z,6.90
2023-05-14T01:34:44.576Z,7.20
2023-05-14T01:35:44.583Z,7.00
2023-05-14T01:36:44.557Z,7.10
2023-05-14T01:37:44.545Z,6.90
2023-05-14T01:38:44.549Z,6.80
2023-05-14T01:39:44.527Z,7.10
2023-05-14T01:40:44.518Z,8.20
2023-05-14T01:41:44.495Z,6.80
2023-05-14T01:42:44.566Z,6.70
2023-05-14T01:43:44.474Z,7.10
2023-05-14T01:44:44.459Z,6.60
2023-05-14T01:45:44.501Z,6.90
2023-05-14T01:46:44.479Z,6.50
2023-05-14T01:47:44.474Z,6.70
2023-05-14T01:48:44.423Z,6.70
2023-05-14T01:49:44.431Z,6.60
2023-05-14T01:50:44.404Z,6.70
2023-05-14T01:51:44.405Z,6.10
2023-05-14T01:52:44.379Z,6.60
2023-05-14T01:53:44.371Z,6.60
2023-05-14T01:54:44.373Z,7.10
2023-05-14T01:55:44.374Z,6.30
2023-05-14T01:56:44.331Z,7.70
2023-05-14T01:57:44.317Z,6.40
2023-05-14T01:58:44.356Z,6.90
2023-05-14T01:59:44.739Z,7.00
2023-05-14T02:00:44.315Z,6.50
2023-05-14T02:01:44.341Z,6.60
2023-05-14T02:02:44.286Z,7.20
2023-05-14T02:03:44.280Z,6.50
2023-05-14T02:04:44.267Z,7.90
2023-05-14T02:05:44.243Z,7.20
2023-05-14T02:06:44.217Z,7.30
2023-05-14T02:07:44.213Z,7.90
2023-05-14T02:08:44.194Z,7.20
2023-05-14T02:09:44.199Z,7.60
2023-05-14T02:10:44.178Z,8.10
2023-05-14T02:11:44.215Z,7.40
2023-05-14T02:12:44.156Z,7.40
2023-05-14T02:13:44.147Z,7.30
2023-05-14T02:14:44.741Z,7.70
2023-05-14T02:15:44.130Z,7.30
2023-05-14T02:16:44.120Z,7.50
2023-05-14T02:17:44.150Z,8.00
2023-05-14T02:18:44.144Z,7.10
2023-05-14T02:19:44.078Z,7.90
2023-05-14T02:20:44.070Z,7.20
2023-05-14T02:21:44.071Z,7.30
2023-05-14T02:22:44.063Z,7.60
2023-05-14T02:23:44.032Z,7.40
2023-05-14T02:24:44.026Z,7.60
2023-05-14T02:25:44.058Z,7.30
2023-05-14T02:26:44.027Z,7.70
2023-05-14T02:27:44.008Z,8.00
2023-05-14T02:28:43.982Z,8.30
2023-05-14T02:29:43.975Z,7.40
2023-05-14T02:30:43.996Z,7.90
2023-05-14T02:31:43.985Z,7.30
2023-05-14T02:32:44.042Z,8.00
2023-05-14T02:33:43.963Z,8.00
2023-05-14T02:34:43.932Z,7.50
2023-05-14T02:35:43.916Z,7.90
2023-05-14T02:36:43.899Z,8.00
2023-05-14T02:37:43.878Z,7.40
2023-05-14T02:38:43.879Z,8.30
2023-05-14T02:39:43.886Z,8.00
2023-05-14T02:40:43.855Z,7.80
2023-05-14T02:41:43.850Z,7.70
2023-05-14T02:42:43.859Z,7.80
2023-05-14T02:43:43.843Z,7.00
2023-05-14T02:44:43.825Z,7.70
2023-05-14T02:45:43.798Z,7.10
2023-05-14T02:46:43.875Z,8.30
2023-05-14T02:47:43.860Z,7.50
2023-05-14T02:48:43.776Z,7.40
2023-05-14T02:49:43.781Z,7.40
2023-05-14T02:50:43.763Z,7.10
2023-05-14T02:51:43.747Z,7.00
2023-05-14T02:52:43.726Z,7.70
2023-05-14T02:53:43.707Z,6.60
2023-05-14T02:54:43.694Z,7.20
2023-05-14T02:55:43.698Z,7.20
2023-05-14T02:56:43.691Z,7.10
2023-05-14T02:57:43.667Z,6.50
2023-05-14T02:58:43.655Z,6.90
2023-05-14T02:59:43.667Z,6.60
2023-05-14T03:00:43.721Z,6.50
2023-05-14T03:01:43.720Z,6.60
2023-05-14T03:02:43.864Z,6.80
2023-05-14T03:03:43.607Z,6.60
2023-05-14T03:04:43.597Z,6.50
2023-05-14T03:05:43.610Z,6.80
2023-05-14T03:06:43.588Z,6.70
2023-05-14T03:10:27.663Z,6.90
2023-05-14T03:11:27.639Z,6.30
2023-05-14T03:12:27.626Z,6.90
2023-05-14T03:13:27.642Z,6.70
2023-05-14T03:14:27.597Z,6.80
2023-05-14T03:15:27.584Z,6.90
2023-05-14T03:16:27.663Z,7.00
2023-05-14T03:17:27.628Z,7.00
2023-05-14T03:18:27.584Z,6.30
2023-05-14T03:19:27.541Z,7.60
2023-05-14T03:20:27.532Z,7.10
2023-05-14T03:21:27.555Z,6.60
2023-05-14T03:22:27.556Z,7.50
2023-05-14T03:23:27.499Z,7.00
2023-05-14T03:24:27.509Z,7.80
2023-05-14T03:25:27.526Z,6.40
2023-05-14T03:26:27.479Z,7.00
2023-05-14T03:27:27.495Z,6.80
2023-05-14T03:28:27.446Z,7.00
2023-05-14T03:29:27.443Z,6.80
2023-05-14T03:30:27.541Z,7.30
2023-05-14T03:31:27.523Z,7.00
2023-05-14T03:32:27.441Z,7.10
2023-05-14T03:33:27.425Z,9.10
2023-05-14T03:34:27.382Z,7.00
2023-05-14T03:35:27.366Z,6.80
2023-05-14T03:36:27.373Z,7.50
2023-05-14T03:37:27.355Z,7.30
2023-05-14T03:38:27.377Z,7.40
2023-05-14T03:39:27.330Z,7.30
2023-05-14T03:40:27.334Z,7.50
2023-05-14T03:41:27.330Z,7.10
2023-05-14T03:42:27.296Z,7.70
2023-05-14T03:43:27.281Z,7.20
2023-05-14T03:44:27.281Z,8.00
2023-05-14T03:45:27.290Z,7.10
2023-05-14T03:46:27.299Z,8.00
2023-05-14T03:47:27.260Z,7.40
2023-05-14T03:48:27.381Z,7.30
2023-05-14T03:49:27.213Z,7.70
2023-05-14T03:50:27.220Z,7.60
2023-05-14T03:51:27.195Z,7.20
2023-05-14T03:52:27.200Z,7.40
2023-05-14T03:53:27.170Z,7.30
2023-05-14T03:54:27.193Z,7.70
2023-05-14T03:55:27.147Z,7.50
2023-05-14T03:56:27.148Z,7.10
2023-05-14T03:57:27.153Z,6.80
2023-05-14T03:58:27.117Z,8.00
2023-05-14T03:59:27.118Z,7.50
2023-05-14T04:00:27.295Z,7.60
2023-05-14T04:01:27.093Z,7.50
2023-05-14T04:02:27.194Z,8.30
2023-05-14T04:03:27.248Z,7.80
2023-05-14T04:04:27.073Z,8.00
2023-05-14T04:05:27.058Z,7.40
2023-05-14T04:06:27.046Z,7.20
2023-05-14T04:07:27.043Z,6.90
2023-05-14T04:08:27.006Z,7.50
2023-05-14T04:09:27.017Z,7.70
2023-05-14T04:10:27.039Z,6.90
2023-05-14T04:11:26.967Z,7.10
2023-05-14T04:12:26.961Z,7.10
2023-05-14T04:13:26.947Z,6.80
2023-05-14T04:14:26.952Z,7.10
2023-05-14T04:15:26.986Z,6.60
2023-05-14T04:16:26.940Z,7.20
2023-05-14T04:17:26.995Z,7.60
2023-05-14T04:18:26.956Z,7.10
2023-05-14T04:19:26.881Z,7.40
2023-05-14T04:20:26.876Z,6.50
2023-05-14T04:21:26.857Z,6.40
2023-05-14T04:22:26.849Z,7.60
2023-05-14T04:23:26.855Z,6.60
2023-05-14T04:24:26.869Z,7.00
2023-05-14T04:25:26.808Z,7.20
2023-05-14T04:26:26.831Z,7.00
2023-05-14T04:27:26.835Z,6.30
2023-05-14T04:28:26.784Z,6.50
2023-05-14T04:29:26.773Z,7.10
2023-05-14T04:30:26.776Z,6.60
2023-05-14T04:31:26.795Z,6.30
2023-05-14T04:32:26.780Z,6.40
2023-05-14T04:33:26.732Z,6.60
2023-05-14T04:34:26.729Z,6.70
2023-05-14T04:35:26.706Z,6.60
2023-05-14T04:36:26.701Z,6.30
2023-05-14T04:37:26.695Z,6.30
2023-05-14T04:38:26.663Z,6.50
2023-05-14T04:39:26.660Z,6.30
2023-05-14T04:40:26.982Z,6.10
2023-05-14T04:41:26.643Z,6.40
2023-05-14T04:42:26.707Z,6.10
2023-05-14T04:43:26.616Z,5.90
2023-05-14T04:44:26.616Z,6.20
2023-05-14T04:45:26.622Z,5.80
2023-05-14T04:46:26.630Z,6.20
2023-05-14T04:47:26.639Z,6.10
2023-05-14T04:48:26.559Z,6.30
2023-05-14T04:49:26.557Z,5.90
2023-05-14T04:50:26.533Z,5.70
2023-05-14T04:51:26.586Z,6.50
2023-05-14T04:52:26.532Z,5.20
2023-05-14T04:53:26.496Z,5.70
2023-05-14T04:54:26.599Z,6.10
2023-05-14T04:55:26.487Z,5.50
2023-05-14T04:56:26.502Z,5.80
2023-05-14T04:57:26.456Z,5.90
2023-05-14T04:58:26.464Z,5.50
2023-05-14T04:59:26.433Z,6.00
2023-05-14T05:00:26.679Z,5.70
2023-05-14T05:01:26.429Z,5.50
2023-05-14T05:02:26.438Z,5.90
2023-05-14T05:03:26.492Z,6.10
2023-05-14T05:04:26.411Z,6.00
2023-05-14T05:05:26.374Z,5.60
2023-05-14T05:06:26.359Z,5.40
2023-05-14T05:07:26.357Z,5.60
2023-05-14T05:08:26.368Z,5.40
2023-05-14T05:09:26.353Z,6.00
2023-05-14T05:27:31.074Z,6.20
2023-05-14T05:28:31.374Z,4.80
2023-05-14T05:29:31.054Z,4.70
2023-05-14T05:30:31.003Z,5.30
2023-05-14T05:31:31.081Z,4.60
2023-05-14T05:32:31.026Z,4.60
2023-05-14T05:33:30.970Z,4.80
2023-05-14T05:34:30.958Z,4.40
2023-05-14T05:35:30.951Z,4.90
2023-05-14T05:36:30.954Z,4.30
2023-05-14T05:37:30.984Z,4.50
2023-05-14T05:38:30.959Z,5.20
2023-05-14T05:39:30.908Z,5.00
2023-05-14T05:40:30.892Z,4.50
2023-05-14T05:41:30.914Z,5.20
2023-05-14T05:42:30.924Z,4.80
2023-05-14T05:43:30.898Z,4.80
2023-05-14T05:44:30.862Z,4.80
2023-05-14T05:45:30.850Z,5.10
2023-05-14T05:46:30.836Z,4.80
2023-05-14T05:47:30.878Z,4.80
2023-05-14T05:48:30.822Z,4.70
2023-05-14T05:49:30.794Z,4.70
2023-05-14T05:50:30.793Z,5.50
2023-05-14T05:51:30.769Z,4.80
2023-05-14T05:52:30.769Z,5.00
2023-05-14T05:53:30.755Z,4.90
2023-05-14T05:54:30.741Z,6.70
2023-05-14T05:55:30.774Z,4.50
2023-05-14T05:56:30.734Z,5.10
2023-05-14T05:57:30.703Z,4.90
2023-05-14T05:58:30.718Z,5.30
2023-05-14T05:59:30.729Z,5.20
2023-05-14T06:00:30.687Z,4.60
2023-05-14T06:01:30.662Z,4.50
2023-05-14T06:02:30.877Z,5.00
2023-05-14T06:03:30.641Z,4.70
2023-05-14T06:04:30.642Z,4.90
2023-05-14T06:05:30.689Z,4.20
2023-05-14T06:06:30.629Z,4.20
2023-05-14T06:07:30.609Z,4.70
2023-05-14T06:08:30.617Z,4.70
2023-05-14T06:09:30.598Z,4.30
2023-05-14T06:10:30.578Z,4.90
2023-05-14T06:11:30.584Z,4.30
2023-05-14T06:12:30.553Z,3.90
2023-05-14T06:13:30.550Z,3.90
2023-05-14T06:14:30.519Z,4.10
2023-05-14T06:15:30.557Z,3.50
2023-05-14T06:16:30.551Z,4.40
2023-05-14T06:17:30.532Z,4.00
2023-05-14T06:18:30.527Z,5.10
2023-05-14T06:19:30.468Z,3.70
2023-05-14T06:20:30.454Z,3.50
2023-05-14T06:21:30.461Z,4.00
2023-05-14T06:22:30.458Z,3.90
2023-05-14T06:23:30.475Z,3.80
2023-05-14T06:24:30.405Z,3.90
2023-05-14T06:25:30.414Z,4.10
2023-05-14T06:26:30.419Z,3.90
2023-05-14T06:27:30.403Z,4.30
2023-05-14T06:28:30.387Z,4.20
2023-05-14T06:29:30.368Z,3.60
2023-05-14T06:30:30.339Z,3.80
2023-05-14T06:31:30.471Z,3.50
2023-05-14T06:32:30.389Z,4.20
2023-05-14T06:33:30.325Z,3.40
2023-05-14T06:34:30.308Z,4.00
2023-05-14T06:35:30.293Z,4.10
2023-05-14T06:36:30.276Z,4.20
2023-05-14T06:37:30.278Z,3.90
2023-05-14T06:38:30.267Z,3.60
2023-05-14T06:39:30.266Z,3.50
2023-05-14T06:40:30.238Z,4.00
2023-05-14T06:41:30.233Z,3.80
2023-05-14T06:42:30.214Z,4.00
2023-05-14T06:43:30.221Z,3.60
2023-05-14T06:44:30.227Z,3.50
2023-05-14T06:45:32.374Z,3.50
2023-05-14T06:46:30.176Z,3.70
2023-05-14T06:47:30.260Z,3.90
2023-05-14T06:48:30.282Z,3.80
2023-05-14T06:49:30.141Z,3.70
2023-05-14T06:50:30.121Z,3.50
2023-05-14T06:51:30.125Z,3.20
2023-05-14T06:52:30.097Z,4.60
2023-05-14T06:53:30.106Z,3.50
2023-05-14T06:54:30.079Z,3.50
2023-05-14T06:55:30.070Z,3.10
2023-05-14T06:56:30.057Z,3.30
2023-05-14T06:57:30.130Z,3.20
2023-05-14T06:58:30.051Z,3.30
2023-05-14T06:59:30.053Z,3.00
2023-05-14T07:00:30.026Z,3.40
2023-05-14T07:01:30.025Z,3.30
2023-05-14T07:02:30.075Z,3.20
2023-05-14T07:03:30.029Z,3.60
2023-05-14T07:04:30.021Z,3.20
2023-05-14T07:05:29.961Z,3.50
2023-05-14T07:06:29.946Z,3.30
2023-05-14T07:07:29.935Z,3.70
2023-05-14T07:08:29.921Z,3.20
2023-05-14T07:09:29.936Z,3.70
2023-05-14T07:10:29.920Z,3.80
2023-05-14T07:11:29.935Z,3.50
2023-05-14T07:12:29.879Z,3.60
2023-05-14T07:13:29.907Z,3.30
2023-05-14T07:14:29.897Z,3.30
2023-05-14T07:15:29.858Z,3.10
2023-05-14T07:16:29.862Z,3.20
2023-05-14T07:17:29.936Z,3.90
2023-05-14T07:18:29.877Z,3.80
2023-05-14T07:19:29.833Z,3.50
2023-05-14T07:20:29.810Z,3.50
2023-05-14T07:21:29.789Z,3.80
2023-05-14T07:22:29.825Z,3.00
2023-05-14T07:23:29.765Z,3.70
2023-05-14T07:24:29.754Z,3.30
2023-05-14T07:25:29.740Z,3.50
2023-05-14T07:26:29.741Z,3.70
2023-05-14T07:27:36.729Z,4.60
2023-05-14T07:28:29.719Z,3.50
2023-05-14T07:29:29.698Z,3.60
2023-05-14T07:30:29.685Z,3.90
2023-05-14T07:31:29.713Z,4.10
2023-05-14T07:32:29.666Z,4.30
2023-05-14T07:33:29.661Z,4.20
2023-05-14T07:34:29.639Z,3.70
2023-05-14T07:35:29.699Z,4.00
2023-05-14T07:36:29.633Z,3.80
2023-05-14T07:37:29.611Z,3.80
2023-05-14T07:38:29.645Z,4.20
2023-05-14T07:39:29.589Z,3.70
2023-05-14T07:40:29.585Z,3.80
2023-05-14T07:41:29.572Z,3.70
2023-05-14T07:42:36.360Z,4.00
2023-05-14T07:43:29.567Z,4.20
2023-05-14T07:44:29.560Z,3.70
2023-05-14T07:45:29.527Z,3.80
2023-05-14T07:46:29.558Z,3.20
2023-05-14T07:47:30.395Z,3.50
2023-05-14T07:48:29.518Z,3.40
2023-05-14T07:49:29.485Z,3.40
2023-05-14T07:50:29.464Z,3.70
2023-05-14T07:51:29.487Z,3.80
2023-05-14T07:52:29.488Z,3.70
2023-05-14T07:53:29.436Z,3.20
2023-05-14T07:54:29.421Z,3.30
2023-05-14T07:55:29.450Z,3.60
2023-05-14T07:56:29.400Z,3.30
2023-05-14T07:57:29.411Z,3.60
2023-05-14T07:58:29.399Z,3.90
2023-05-14T07:59:29.371Z,3.20
2023-05-14T08:00:29.357Z,3.50
2023-05-14T08:01:29.360Z,3.50
2023-05-14T08:02:29.428Z,4.50
2023-05-14T08:03:29.400Z,4.00
2023-05-14T08:04:29.505Z,3.50
2023-05-14T08:05:29.332Z,3.50
2023-05-14T08:06:29.291Z,3.70
2023-05-14T08:07:29.306Z,3.50
2023-05-14T08:08:29.271Z,4.00
2023-05-14T08:09:29.275Z,3.60
2023-05-14T08:10:29.523Z,3.40
2023-05-14T08:11:29.240Z,3.80
2023-05-14T08:12:29.233Z,3.50
2023-05-14T08:13:29.217Z,3.90
2023-05-14T08:14:29.230Z,4.00
2023-05-14T08:15:29.205Z,3.70
2023-05-14T08:16:29.217Z,3.70
2023-05-14T08:17:29.199Z,3.70
2023-05-14T08:18:29.205Z,3.60
2023-05-14T08:19:29.155Z,4.00
2023-05-14T08:20:29.180Z,4.00
2023-05-14T08:21:29.168Z,4.30
2023-05-14T08:22:29.129Z,4.20
2023-05-14T08:23:29.144Z,4.00
2023-05-14T08:24:29.102Z,3.90
2023-05-14T08:25:29.091Z,3.60
2023-05-14T08:26:29.079Z,3.50
2023-05-14T08:27:29.094Z,3.70
2023-05-14T08:28:29.076Z,3.10
2023-05-14T08:29:29.059Z,3.40
2023-05-14T08:30:29.100Z,3.50
2023-05-14T08:31:29.187Z,3.60
2023-05-14T08:32:29.057Z,3.50
2023-05-14T08:33:29.032Z,3.50
2023-05-14T08:34:28.990Z,3.40
2023-05-14T08:35:28.985Z,3.00
2023-05-14T08:36:28.978Z,2.90
2023-05-14T08:37:28.976Z,3.20
2023-05-14T08:38:28.959Z,3.10
2023-05-14T08:39:28.960Z,3.00
2023-05-14T08:40:28.939Z,3.20
2023-05-14T08:41:28.935Z,3.20
2023-05-14T08:42:28.917Z,3.10
2023-05-14T08:43:28.911Z,3.20
2023-05-14T08:44:28.896Z,2.60
2023-05-14T08:45:28.877Z,3.20
2023-05-14T08:46:28.859Z,2.50
2023-05-14T08:47:28.867Z,2.70
2023-05-14T08:48:28.979Z,2.90
2023-05-14T08:49:28.836Z,2.90
2023-05-14T08:50:29.281Z,2.90
2023-05-14T08:51:28.808Z,2.60
2023-05-14T08:52:28.792Z,2.70
2023-05-14T08:53:28.784Z,3.60
2023-05-14T08:54:28.782Z,3.20
2023-05-14T08:55:28.804Z,3.00
2023-05-14T08:56:28.758Z,2.70
2023-05-14T08:57:28.750Z,2.60
2023-05-14T08:58:28.732Z,2.20
2023-05-14T08:59:28.715Z,2.50
2023-05-14T09:00:28.717Z,2.30
2023-05-14T09:01:28.782Z,2.90
2023-05-14T09:02:28.714Z,2.60
2023-05-14T09:03:28.696Z,2.30
2023-05-14T09:04:28.668Z,2.50
2023-05-14T09:05:28.649Z,2.20
2023-05-14T09:06:28.664Z,2.50
2023-05-14T09:07:28.647Z,2.60
2023-05-14T09:08:28.705Z,2.50
2023-05-14T09:09:28.633Z,2.30
2023-05-14T09:10:28.620Z,2.30
2023-05-14T09:11:28.609Z,2.30
2023-05-14T09:12:28.590Z,2.40
2023-05-14T09:13:28.591Z,3.30
2023-05-14T09:14:28.615Z,2.10
2023-05-14T09:15:28.579Z,2.00
2023-05-14T09:16:28.590Z,2.00
2023-05-14T09:17:28.580Z,1.90
2023-05-14T09:18:28.602Z,2.00
2023-05-14T09:19:28.507Z,1.90
2023-05-14T09:20:28.987Z,2.50
2023-05-14T09:21:28.482Z,2.10
2023-05-14T09:22:28.541Z,2.10
2023-05-14T09:23:28.481Z,2.20
2023-05-14T09:24:28.478Z,1.80
2023-05-14T09:25:28.437Z,2.50
2023-05-14T09:26:28.434Z,2.20
2023-05-14T09:27:28.560Z,2.10
2023-05-14T09:28:35.921Z,1.70
2023-05-14T09:29:28.417Z,1.80
2023-05-14T09:30:28.384Z,1.70
2023-05-14T09:31:28.426Z,2.10
2023-05-14T09:32:28.385Z,2.40
2023-05-14T09:33:28.363Z,1.60
2023-05-14T09:34:28.340Z,1.60
2023-05-14T09:35:28.385Z,1.80
2023-05-14T09:36:28.324Z,1.30
2023-05-14T09:37:28.364Z,1.80
2023-05-14T09:38:28.299Z,1.90
2023-05-14T09:39:28.284Z,1.80
2023-05-14T09:40:28.668Z,2.00
2023-05-14T09:41:28.275Z,1.70
2023-05-14T09:42:28.263Z,1.70
2023-05-14T09:43:28.280Z,1.50
2023-05-14T09:44:28.255Z,1.60
2023-05-14T09:45:28.244Z,1.50
2023-05-14T09:46:28.240Z,1.60
2023-05-14T09:47:28.260Z,2.10
2023-05-14T09:48:28.233Z,1.80
2023-05-14T09:49:28.176Z,1.70
2023-05-14T09:50:28.218Z,2.40
2023-05-14T09:51:28.168Z,1.20
2023-05-14T09:52:28.164Z,1.90
2023-05-14T09:53:28.134Z,1.60
2023-05-14T09:54:28.177Z,1.60
2023-05-14T09:55:28.127Z,1.50
2023-05-14T09:56:28.137Z,1.80
2023-05-14T09:57:28.093Z,1.60
2023-05-14T09:58:28.087Z,1.70
2023-05-14T09:59:28.107Z,1.60
2023-05-14T10:00:28.061Z,1.70
2023-05-14T10:01:28.091Z,1.80
2023-05-14T10:02:28.102Z,1.80
2023-05-14T10:03:28.040Z,1.70
2023-05-14T10:04:28.121Z,1.90
2023-05-14T10:05:28.027Z,1.80
2023-05-14T10:06:28.058Z,2.00
2023-05-14T10:07:28.004Z,2.00
2023-05-14T10:08:27.991Z,1.80
2023-05-14T10:09:27.982Z,1.90
2023-05-14T10:10:28.249Z,1.90
2023-05-14T10:11:27.962Z,1.80
2023-05-14T10:12:27.930Z,1.80
2023-05-14T10:13:27.921Z,1.50
2023-05-14T10:14:27.929Z,1.60
2023-05-14T10:15:27.924Z,1.70
2023-05-14T10:16:27.919Z,1.50
2023-05-14T10:17:27.899Z,1.50
2023-05-14T10:18:27.913Z,1.20
2023-05-14T10:19:27.995Z,1.50
2023-05-14T10:20:27.850Z,1.30
2023-05-14T10:21:27.846Z,1.60
2023-05-14T10:22:27.822Z,1.40
2023-05-14T10:23:27.822Z,1.10
2023-05-14T10:24:27.814Z,1.50
2023-05-14T10:25:27.803Z,1.30
2023-05-14T10:26:27.791Z,1.50
2023-05-14T10:27:27.778Z,1.70
2023-05-14T10:28:27.779Z,2.20
2023-05-14T10:29:27.748Z,1.20
2023-05-14T10:30:27.811Z,1.40
2023-05-14T10:31:27.821Z,1.40
2023-05-14T10:32:27.775Z,1.30
2023-05-14T10:33:27.751Z,1.70
2023-05-14T10:34:27.696Z,1.40
2023-05-14T10:35:27.684Z,1.40
2023-05-14T10:36:27.692Z,1.70
2023-05-14T10:37:27.719Z,1.60
2023-05-14T10:38:27.664Z,1.50
2023-05-14T10:39:27.645Z,2.20
2023-05-14T10:40:27.645Z,1.30
2023-05-14T10:41:27.625Z,1.40
2023-05-14T10:42:27.666Z,2.80
2023-05-14T10:43:27.602Z,1.30
2023-05-14T10:44:27.589Z,1.30
2023-05-14T10:45:27.585Z,1.40
2023-05-14T10:46:27.621Z,2.10
2023-05-14T10:47:27.594Z,1.30
2023-05-14T10:48:27.549Z,1.40
2023-05-14T10:49:42.393Z,1.80
2023-05-14T10:50:27.582Z,1.90
2023-05-14T10:51:27.532Z,1.50
2023-05-14T10:52:27.518Z,1.90
2023-05-14T10:53:27.501Z,1.40
2023-05-14T10:54:27.492Z,1.40
2023-05-14T10:55:27.484Z,1.40
2023-05-14T10:56:27.460Z,1.40
2023-05-14T10:57:27.516Z,1.80
2023-05-14T10:58:27.446Z,1.80
2023-05-14T10:59:27.438Z,1.70
2023-05-14T11:00:27.433Z,1.40
2023-05-14T11:01:27.431Z,1.60
2023-05-14T11:02:27.447Z,1.50
2023-05-14T11:03:27.428Z,1.60
2023-05-14T11:04:27.375Z,1.50
2023-05-14T11:05:27.429Z,1.60
2023-05-14T11:06:27.366Z,1.70
2023-05-14T11:07:27.376Z,1.50
2023-05-14T11:08:29.285Z,2.00
2023-05-14T11:09:27.319Z,2.10
2023-05-14T11:10:27.323Z,1.60
2023-05-14T11:11:27.354Z,1.50
2023-05-14T11:12:27.314Z,1.70
2023-05-14T11:13:27.275Z,1.60
2023-05-14T11:14:27.267Z,1.50
2023-05-14T11:15:27.303Z,2.00
2023-05-14T11:16:27.318Z,1.60
2023-05-14T11:17:27.280Z,1.40
2023-05-14T11:18:27.253Z,1.50
2023-05-14T11:19:27.238Z,1.70
2023-05-14T11:20:27.352Z,1.10
2023-05-14T11:21:27.257Z,2.20
2023-05-14T11:22:27.197Z,1.50
2023-05-14T11:23:27.174Z,1.50
2023-05-14T11:24:28.015Z,1.50
2023-05-14T11:25:27.149Z,1.60
2023-05-14T11:26:27.193Z,1.80
2023-05-14T11:27:27.138Z,2.80
2023-05-14T11:28:27.124Z,2.20
2023-05-14T11:29:35.650Z,1.30
2023-05-14T11:30:27.098Z,1.70
2023-05-14T11:31:27.107Z,1.60
2023-05-14T11:32:27.089Z,1.90
2023-05-14T11:33:27.064Z,1.60
2023-05-14T11:34:27.069Z,2.00
2023-05-14T11:35:27.060Z,5.10
2023-05-14T11:36:27.090Z,2.00
2023-05-14T11:37:27.024Z,1.60
2023-05-14T11:38:27.056Z,1.60
2023-05-14T11:39:27.000Z,1.80
2023-05-14T11:40:27.035Z,1.80
2023-05-14T11:41:27.030Z,1.60
2023-05-14T11:42:26.969Z,2.70
2023-05-14T11:43:26.977Z,2.60
2023-05-14T11:44:26.956Z,2.60
2023-05-14T11:45:26.947Z,2.70
2023-05-14T11:46:26.968Z,2.30
2023-05-14T11:47:26.966Z,2.30
2023-05-14T11:48:26.918Z,1.80
2023-05-14T11:49:26.923Z,2.70
2023-05-14T11:50:27.125Z,2.10
2023-05-14T11:51:26.937Z,2.00
2023-05-14T11:52:26.879Z,1.90
2023-05-14T11:53:26.898Z,1.70
2023-05-14T11:54:26.845Z,1.80
2023-05-14T11:55:26.861Z,1.90
2023-05-14T11:56:26.836Z,1.60
2023-05-14T11:57:26.809Z,1.60
2023-05-14T11:58:26.831Z,2.40
2023-05-14T11:59:26.786Z,1.50
2023-05-14T12:00:26.895Z,1.80
2023-05-14T12:01:26.776Z,2.30
2023-05-14T12:02:26.798Z,1.60
2023-05-14T12:03:27.109Z,1.60
2023-05-14T12:04:26.742Z,1.40
2023-05-14T12:05:26.728Z,1.90
2023-05-14T12:06:26.765Z,2.10
2023-05-14T12:07:26.713Z,1.50
2023-05-14T12:08:26.686Z,1.80
2023-05-14T12:09:26.683Z,1.80
2023-05-14T12:10:26.935Z,1.70
2023-05-14T12:11:26.649Z,2.30
2023-05-14T12:12:26.642Z,1.70
2023-05-14T12:13:26.649Z,1.60
2023-05-14T12:14:26.619Z,1.40
2023-05-14T12:15:26.620Z,1.60
2023-05-14T12:16:26.644Z,1.90
2023-05-14T12:17:26.637Z,1.70
2023-05-14T12:18:26.632Z,1.50
2023-05-14T12:19:26.677Z,1.70
2023-05-14T12:20:26.677Z,1.40
2023-05-14T12:21:26.549Z,1.40
2023-05-14T12:22:26.545Z,1.90
2023-05-14T12:23:26.539Z,1.80
2023-05-14T12:24:26.512Z,1.90
2023-05-14T12:25:26.511Z,1.60
2023-05-14T12:26:26.489Z,2.40
2023-05-14T12:27:26.518Z,2.30
2023-05-14T12:28:26.475Z,1.50
2023-05-14T12:29:26.454Z,1.50
2023-05-14T12:30:26.442Z,1.80
2023-05-14T12:31:26.507Z,1.60
2023-05-14T12:32:26.432Z,1.70
2023-05-14T12:33:26.413Z,1.80
2023-05-14T12:34:26.403Z,1.70
2023-05-14T12:35:26.641Z,1.90
2023-05-14T12:36:26.385Z,1.60
2023-05-14T12:37:26.370Z,2.00
2023-05-14T12:38:26.359Z,1.70
2023-05-14T12:39:26.383Z,1.60
2023-05-14T12:40:26.570Z,2.70
2023-05-14T12:41:26.320Z,1.90
2023-05-14T12:42:26.329Z,2.60
2023-05-14T12:43:26.310Z,1.80
2023-05-14T12:44:26.302Z,1.60
2023-05-14T12:45:26.375Z,1.70
2023-05-14T12:46:26.313Z,3.30
2023-05-14T12:47:26.369Z,1.70
2023-05-14T12:48:26.249Z,1.80
2023-05-14T12:49:26.238Z,2.10
2023-05-14T12:50:26.541Z,1.60
2023-05-14T12:51:26.230Z,1.80
2023-05-14T12:53:27.222Z,2.30
2023-05-14T12:54:26.187Z,2.60
2023-05-14T12:55:26.201Z,4.20
2023-05-14T12:56:26.174Z,2.50
2023-05-14T12:57:26.186Z,3.10
2023-05-14T12:58:26.154Z,1.80
2023-05-14T12:59:26.134Z,2.00
2023-05-14T13:00:26.342Z,1.90
2023-05-14T13:01:26.161Z,2.20
2023-05-14T13:02:26.165Z,1.80
2023-05-14T13:03:26.094Z,2.10
2023-05-14T13:04:26.111Z,2.00
2023-05-14T13:05:26.313Z,1.60
2023-05-14T13:06:26.063Z,1.90
2023-05-14T13:07:26.044Z,2.10
2023-05-14T13:08:26.042Z,2.10
2023-05-14T13:09:26.022Z,2.20
2023-05-14T13:10:26.049Z,2.50
2023-05-14T13:11:26.024Z,3.40
2023-05-14T13:12:25.998Z,2.50
2023-05-14T13:13:25.993Z,2.20
2023-05-14T13:14:25.974Z,1.90
2023-05-14T13:15:26.231Z,2.10
2023-05-14T13:16:25.983Z,2.10
2023-05-14T13:17:25.974Z,2.00
2023-05-14T13:18:25.984Z,1.80
2023-05-14T13:19:25.990Z,2.20
2023-05-14T13:20:25.920Z,2.00
2023-05-14T13:21:25.900Z,2.10
2023-05-14T13:22:25.875Z,2.50
2023-05-14T13:23:25.890Z,2.10
2023-05-14T13:24:25.977Z,2.20
2023-05-14T13:25:26.036Z,2.60
2023-05-14T13:26:25.845Z,2.30
2023-05-14T13:27:25.867Z,2.10
2023-05-14T13:28:25.829Z,2.00
2023-05-14T13:29:25.806Z,2.10
2023-05-14T13:30:33.305Z,2.00
2023-05-14T13:31:25.876Z,3.00
2023-05-14T13:32:25.868Z,1.80
2023-05-14T13:33:25.767Z,1.90
2023-05-14T13:34:25.792Z,1.90
2023-05-14T13:35:25.975Z,1.90
2023-05-14T13:36:25.729Z,1.90
2023-05-14T13:37:25.743Z,1.70
2023-05-14T13:38:25.708Z,7.40
2023-05-14T13:39:25.699Z,2.10